Time;durP1;ratioP1;P1;durP2;ratioP2;P2;SDS_P1;SDS_P2;PMS_P1;PMS_P2;Temp;Humidity;BMP_temperature;BMP_pressure;BME280_temperature;BME280_humidity;BME280_pressure;Samples;Min_cycle;Max_cycle;Signal;HPM_P1;HPM_P2
2022/08/08 00:00:21;;;;;;;14.40;3.60;;;;;;;11.14;100.00;99608.03;2201815;80;21515;-70
2022/08/08 00:03:25;;;;;;;11.10;2.67;;;;;;;11.25;100.00;99608.34;2183489;79;21064;-71
2022/08/08 00:06:26;;;;;;;6.83;2.37;;;;;;;11.19;100.00;99608.19;2199987;80;21089;-70
2022/08/08 00:09:28;;;;;;;13.20;3.47;;;;;;;11.12;100.00;99604.62;2197883;80;20996;-67
2022/08/08 00:12:30;;;;;;;10.95;2.72;;;;;;;11.12;100.00;99598.92;2205037;80;21051;-70
2022/08/08 00:15:32;;;;;;;11.70;2.45;;;;;;;11.04;100.00;99596.66;2204420;80;21028;-70
2022/08/08 00:18:33;;;;;;;9.33;2.80;;;;;;;11.03;100.00;99589.73;2203197;80;21005;-71
2022/08/08 00:21:34;;;;;;;14.13;3.47;;;;;;;11.05;100.00;99584.41;2201987;80;21043;-69
2022/08/08 00:24:36;;;;;;;15.87;3.57;;;;;;;11.04;100.00;99584.02;2204456;80;21000;-71
2022/08/08 00:27:37;;;;;;;12.28;3.65;;;;;;;11.00;100.00;99586.41;2200921;80;21495;-69
2022/08/08 00:30:39;;;;;;;10.32;2.10;;;;;;;10.98;100.00;99589.11;2204017;80;20992;-59
2022/08/08 00:33:40;;;;;;;5.70;2.17;;;;;;;11.01;100.00;99589.42;2202303;80;21100;-59
2022/08/08 00:36:41;;;;;;;9.53;2.72;;;;;;;11.03;100.00;99584.94;2205355;80;21082;-62
2022/08/08 00:39:43;;;;;;;11.10;2.83;;;;;;;10.98;100.00;99585.65;2202409;80;21103;-59
2022/08/08 00:42:44;;;;;;;11.00;2.47;;;;;;;10.96;100.00;99579.61;2204648;80;21639;-59
2022/08/08 00:45:46;;;;;;;5.92;2.25;;;;;;;10.98;100.00;99583.86;2196534;80;20992;-59
2022/08/08 00:48:47;;;;;;;4.87;1.87;;;;;;;10.95;100.00;99584.02;2201431;80;21578;-59
2022/08/08 00:51:49;;;;;;;7.35;1.65;;;;;;;10.92;100.00;99578.93;2203153;80;21039;-58
2022/08/08 00:54:50;;;;;;;8.45;2.37;;;;;;;11.07;100.00;99582.06;2205698;80;21036;-61
2022/08/08 00:57:51;;;;;;;5.85;2.52;;;;;;;10.97;100.00;99578.22;2203048;80;20985;-59
2022/08/08 01:00:53;;;;;;;10.43;2.92;;;;;;;10.88;100.00;99576.07;2206308;80;20960;-59
2022/08/08 01:03:54;;;;;;;16.75;3.72;;;;;;;10.90;100.00;99583.39;2206164;80;21020;-60
2022/08/08 01:06:56;;;;;;;16.48;4.05;;;;;;;10.95;100.00;99577.91;2206967;80;20995;-59
2022/08/08 01:09:57;;;;;;;13.83;3.83;;;;;;;11.03;100.00;99575.30;2203027;80;21538;-59
2022/08/08 01:12:59;;;;;;;15.50;3.80;;;;;;;11.01;100.00;99575.83;2203385;80;22444;-58
2022/08/08 01:16:00;;;;;;;19.77;5.13;;;;;;;11.00;100.00;99571.97;2206887;80;21649;-59
2022/08/08 01:19:02;;;;;;;15.40;4.30;;;;;;;11.03;100.00;99575.30;2200823;81;21000;-59
2022/08/08 01:22:03;;;;;;;19.10;5.00;;;;;;;10.96;100.00;99583.55;2196522;80;21008;-62
2022/08/08 01:25:05;;;;;;;16.93;4.03;;;;;;;10.86;100.00;99577.47;2242312;79;22352;-58
2022/08/08 01:28:06;;;;;;;11.53;3.00;;;;;;;10.62;100.00;99574.28;2202171;80;21024;-59
2022/08/08 01:31:08;;;;;;;13.68;3.08;;;;;;;10.45;100.00;99580.34;2242282;77;21040;-60
2022/08/08 01:34:09;;;;;;;10.35;3.20;;;;;;;10.32;100.00;99579.22;2241679;79;21060;-59
2022/08/08 01:37:10;;;;;;;12.18;2.92;;;;;;;10.30;100.00;99576.66;2237270;79;20972;-61
2022/08/08 01:40:12;;;;;;;17.65;3.75;;;;;;;10.34;100.00;99576.95;2245243;78;21506;-69
2022/08/08 01:43:14;;;;;;;13.65;3.30;;;;;;;10.40;100.00;99577.95;2242363;78;21012;-70
2022/08/08 01:46:15;;;;;;;12.03;3.17;;;;;;;10.45;100.00;99577.72;2240464;78;21510;-59
2022/08/08 01:49:17;;;;;;;13.27;3.30;;;;;;;10.50;100.00;99580.11;2242042;78;20957;-59
2022/08/08 01:52:19;;;;;;;12.65;3.47;;;;;;;10.62;100.00;99579.52;2244091;78;21020;-59
2022/08/08 01:55:21;;;;;;;11.97;3.00;;;;;;;10.72;100.00;99575.52;2245855;78;20983;-69
2022/08/08 01:58:22;;;;;;;11.53;2.90;;;;;;;10.70;100.00;99576.52;2245188;78;21463;-67
2022/08/08 02:01:23;;;;;;;6.47;2.37;;;;;;;10.31;100.00;99580.96;2242249;78;20989;-69
2022/08/08 02:04:25;;;;;;;9.10;2.20;;;;;;;10.10;100.00;99581.55;2244079;78;21503;-70
2022/08/08 02:07:26;;;;;;;5.83;2.23;;;;;;;10.09;100.00;99580.30;2244776;78;21130;-68
2022/08/08 02:10:30;;;;;;;7.58;2.60;;;;;;;10.04;100.00;99585.73;2245233;78;21122;-71
2022/08/08 02:13:31;;;;;;;9.48;2.95;;;;;;;10.05;100.00;99580.89;2211383;79;21487;-66
2022/08/08 02:16:33;;;;;;;9.60;2.72;;;;;;;10.12;100.00;99581.00;2241932;78;21043;-67
2022/08/08 02:19:34;;;;;;;12.47;3.33;;;;;;;10.13;100.00;99584.02;2247328;78;21491;-67
2022/08/08 02:22:36;;;;;;;13.18;3.22;;;;;;;10.13;100.00;99581.83;2243865;78;20992;-71
2022/08/08 02:25:37;;;;;;;11.45;3.00;;;;;;;10.15;100.00;99581.32;2243839;78;20999;-66
2022/08/08 02:28:38;;;;;;;15.25;3.37;;;;;;;10.29;100.00;99588.55;2240678;78;21024;-71
2022/08/08 02:31:40;;;;;;;8.75;2.55;;;;;;;10.29;100.00;99581.98;2243659;78;20988;-71
2022/08/08 02:34:42;;;;;;;9.90;3.02;;;;;;;10.42;100.00;99588.36;2240071;78;21008;-58
2022/08/08 02:37:43;;;;;;;7.95;2.60;;;;;;;10.45;100.00;99595.24;2245295;78;20984;-59
2022/08/08 02:40:44;;;;;;;10.98;2.90;;;;;;;10.46;100.00;99600.41;2241193;78;21530;-58
2022/08/08 02:43:46;;;;;;;12.20;2.77;;;;;;;10.44;100.00;99596.99;2239897;79;21043;-59
2022/08/08 02:46:47;;;;;;;9.33;2.53;;;;;;;10.55;100.00;99597.80;2243599;77;20985;-60
2022/08/08 02:49:49;;;;;;;8.28;2.87;;;;;;;10.52;100.00;99608.45;2243032;78;21039;-59
2022/08/08 02:52:50;;;;;;;10.18;3.10;;;;;;;10.43;100.00;99605.81;2201759;80;21047;-59
2022/08/08 02:55:52;;;;;;;9.40;3.03;;;;;;;10.42;100.00;99605.41;2243788;78;21027;-59
2022/08/08 02:58:53;;;;;;;11.80;3.10;;;;;;;10.42;100.00;99609.34;2243614;78;21028;-60
2022/08/08 03:01:55;;;;;;;11.90;2.87;;;;;;;10.39;100.00;99611.64;2225133;78;21616;-58
2022/08/08 03:04:56;;;;;;;11.90;3.02;;;;;;;10.42;100.00;99607.20;2231462;78;21032;-59
2022/08/08 03:07:58;;;;;;;15.13;3.10;;;;;;;10.42;100.00;99609.34;2242230;78;21517;-58
2022/08/08 03:10:59;;;;;;;11.03;3.30;;;;;;;10.40;100.00;99609.86;2243331;78;21004;-59
2022/08/08 03:14:01;;;;;;;12.28;3.30;;;;;;;10.48;100.00;99614.29;2242338;78;21035;-58
2022/08/08 03:17:02;;;;;;;14.13;3.10;;;;;;;10.54;100.00;99615.33;2242741;78;21009;-66
2022/08/08 03:23:06;;;;;;;18.10;4.05;;;;;;;10.56;100.00;99620.02;2200279;80;21012;-70
2022/08/08 03:26:08;;;;;;;12.80;3.87;;;;;;;10.49;100.00;99612.53;2184292;81;21134;-70
2022/08/08 03:29:09;;;;;;;14.90;3.80;;;;;;;10.44;100.00;99614.05;2204969;80;21030;-65
2022/08/08 03:35:14;;;;;;;13.68;2.90;;;;;;;10.42;100.00;99617.69;2148451;81;20999;-68
2022/08/08 03:38:15;;;;;;;13.50;3.15;;;;;;;10.37;100.00;99614.81;2204294;80;20968;-66
2022/08/08 03:41:17;;;;;;;14.10;3.20;;;;;;;10.53;100.00;99616.23;2200708;80;21568;-67
2022/08/08 03:44:18;;;;;;;15.30;3.85;;;;;;;10.62;100.00;99612.31;2194921;80;21013;-66
2022/08/08 03:47:20;;;;;;;16.33;4.33;;;;;;;10.70;100.00;99615.87;2182240;80;21499;-70
2022/08/08 03:50:22;;;;;;;19.67;4.33;;;;;;;10.76;100.00;99616.90;2195780;80;21063;-71
2022/08/08 03:53:23;;;;;;;14.03;3.50;;;;;;;10.75;100.00;99616.50;2189324;80;21466;-62
2022/08/08 03:56:25;;;;;;;16.25;3.90;;;;;;;10.82;100.00;99615.72;2192573;80;20979;-66
2022/08/08 03:59:26;;;;;;;16.67;3.80;;;;;;;11.01;100.00;99616.52;2190449;80;21047;-70
2022/08/08 04:02:28;;;;;;;11.47;3.40;;;;;;;11.01;100.00;99607.33;2208939;80;21535;-66
2022/08/08 04:05:29;;;;;;;15.15;4.15;;;;;;;11.08;100.00;99608.72;2182817;80;21097;-70
2022/08/08 04:08:31;;;;;;;15.18;3.70;;;;;;;11.19;100.00;99607.31;2194854;80;21072;-70
2022/08/08 04:11:32;;;;;;;13.65;3.62;;;;;;;11.32;100.00;99612.79;2177787;80;20991;-68
2022/08/08 04:14:34;;;;;;;11.97;3.35;;;;;;;11.60;100.00;99620.09;2184595;80;21146;-68
2022/08/08 04:17:35;;;;;;;12.90;3.63;;;;;;;11.72;100.00;99619.90;2191387;80;21083;-69
2022/08/08 04:20:37;;;;;;;12.90;3.33;;;;;;;11.68;100.00;99612.66;2181799;80;20971;-67
2022/08/08 04:23:38;;;;;;;16.85;3.77;;;;;;;11.78;100.00;99612.55;2193977;80;21502;-69
2022/08/08 04:26:40;;;;;;;13.22;3.20;;;;;;;12.07;100.00;99621.15;2185131;80;21023;-70
2022/08/08 04:29:41;;;;;;;14.33;3.67;;;;;;;12.26;100.00;99618.35;2176725;80;21488;-71
2022/08/08 04:32:43;;;;;;;15.60;3.83;;;;;;;12.39;100.00;99616.72;2188154;80;20995;-67
2022/08/08 04:35:44;;;;;;;17.03;3.80;;;;;;;12.44;100.00;99620.41;2201444;80;21649;-59
2022/08/08 04:38:45;;;;;;;13.10;3.53;;;;;;;12.47;100.00;99618.95;2180805;80;20995;-60
2022/08/08 04:41:47;;;;;;;14.93;4.20;;;;;;;12.57;100.00;99616.62;2186221;80;21059;-59
2022/08/08 04:44:48;;;;;;;15.27;3.93;;;;;;;12.71;100.00;99619.79;2190757;80;20984;-59
2022/08/08 04:47:50;;;;;;;14.63;3.80;;;;;;;12.77;100.00;99626.87;2194639;80;21001;-59
2022/08/08 04:50:52;;;;;;;14.90;3.65;;;;;;;12.79;100.00;99632.89;2204234;80;21050;-59
2022/08/08 04:53:53;;;;;;;14.80;3.45;;;;;;;12.79;100.00;99627.63;2195095;80;21068;-59
2022/08/08 04:56:55;;;;;;;13.10;3.50;;;;;;;12.89;100.00;99633.70;2193754;80;21506;-59
2022/08/08 04:59:58;;;;;;;11.60;3.50;;;;;;;12.99;100.00;99634.38;2193891;80;21023;-59
2022/08/08 05:03:00;;;;;;;10.80;3.17;;;;;;;13.17;100.00;99639.05;2212490;80;21051;-58
2022/08/08 05:06:01;;;;;;;11.07;3.00;;;;;;;13.33;100.00;99639.44;2202055;80;21072;-59
2022/08/08 05:09:03;;;;;;;12.07;3.07;;;;;;;13.38;100.00;99640.53;2204972;80;20996;-59
2022/08/08 05:12:04;;;;;;;10.72;3.00;;;;;;;13.43;100.00;99640.64;2182557;80;21090;-59
2022/08/08 05:15:06;;;;;;;10.27;3.07;;;;;;;13.56;100.00;99643.84;2176043;81;20985;-59
2022/08/08 05:18:07;;;;;;;10.93;2.92;;;;;;;13.73;100.00;99648.09;2199295;80;21028;-60
2022/08/08 05:21:09;;;;;;;10.97;3.17;;;;;;;13.98;100.00;99642.17;2181318;80;21044;-59
2022/08/08 05:24:10;;;;;;;11.63;3.57;;;;;;;14.28;100.00;99644.67;2191094;80;21478;-59
2022/08/08 05:27:12;;;;;;;10.07;3.13;;;;;;;14.48;100.00;99644.72;2197213;80;21005;-60
2022/08/08 05:30:13;;;;;;;12.97;3.40;;;;;;;14.48;100.00;99646.48;2208079;80;21538;-59
2022/08/08 05:33:15;;;;;;;14.90;3.05;;;;;;;14.59;100.00;99647.13;2185954;80;21041;-60
2022/08/08 05:36:16;;;;;;;8.73;3.00;;;;;;;14.77;100.00;99649.94;2196129;80;21063;-59
2022/08/08 05:39:18;;;;;;;12.93;3.25;;;;;;;15.12;100.00;99652.52;2198929;80;21114;-58
2022/08/08 05:42:19;;;;;;;12.13;3.17;;;;;;;15.56;100.00;99657.92;2197115;80;21000;-59
2022/08/08 05:45:21;;;;;;;13.23;3.30;;;;;;;15.89;100.00;99662.70;2203857;80;21036;-60
2022/08/08 05:48:22;;;;;;;10.40;2.92;;;;;;;16.43;100.00;99665.52;2201403;80;21027;-59
2022/08/08 05:51:24;;;;;;;11.33;2.93;;;;;;;16.71;100.00;99656.88;2203135;80;21479;-59
2022/08/08 05:54:25;;;;;;;11.97;2.95;;;;;;;16.71;100.00;99656.88;2202808;80;21009;-59
2022/08/08 05:57:27;;;;;;;11.08;3.17;;;;;;;16.71;100.00;99673.26;2204820;80;21059;-60
2022/08/08 06:00:29;;;;;;;11.38;3.33;;;;;;;16.95;100.00;99667.97;2200618;80;20996;-60
2022/08/08 06:03:30;;;;;;;12.35;3.10;;;;;;;17.44;100.00;99664.29;2207585;80;21524;-59
2022/08/08 06:06:32;;;;;;;11.35;2.95;;;;;;;17.96;100.00;99662.58;2204380;80;20981;-59
2022/08/08 06:09:36;;;;;;;15.45;2.90;;;;;;;18.53;100.00;99668.65;2201557;80;21004;-59
2022/08/08 06:12:37;;;;;;;9.03;2.65;;;;;;;18.98;100.00;99663.24;2183989;80;21033;-59
2022/08/08 06:15:38;;;;;;;4.30;2.00;;;;;;;19.26;100.00;99666.74;2202826;80;21001;-59
2022/08/08 06:18:40;;;;;;;13.88;2.55;;;;;;;19.75;100.00;99658.56;2207147;80;20993;-60
2022/08/08 06:21:41;;;;;;;9.88;2.35;;;;;;;20.26;100.00;99663.52;2206122;80;21526;-60
2022/08/08 06:24:43;;;;;;;9.38;2.20;;;;;;;20.54;100.00;99665.91;2204561;80;21024;-59
2022/08/08 06:27:45;;;;;;;10.23;2.40;;;;;;;20.96;100.00;99663.53;2203341;80;21483;-60
2022/08/08 06:30:46;;;;;;;;;;;;;;;21.35;100.00;99652.83;2204635;80;21031;-59
2022/08/08 06:33:48;;;;;;;5.08;1.62;;;;;;;21.68;90.88;99655.16;2203806;80;20516;-59
2022/08/08 06:36:49;;;;;;;6.80;1.75;;;;;;;21.77;97.98;99656.47;2207351;80;21083;-60
2022/08/08 06:39:50;;;;;;;6.20;1.85;;;;;;;22.31;96.51;99652.66;2201857;81;21063;-59
2022/08/08 06:42:52;;;;;;;11.68;1.52;;;;;;;22.51;81.32;99659.75;2201711;81;21071;-66
2022/08/08 06:45:54;;;;;;;7.67;1.80;;;;;;;22.40;76.35;99652.80;2203332;80;21000;-67
2022/08/08 06:48:55;;;;;;;6.90;1.72;;;;;;;22.46;78.98;99659.70;2206591;80;21009;-63
2022/08/08 06:51:59;;;;;;;8.73;1.77;;;;;;;22.72;83.23;99654.12;2205689;80;20993;-66
2022/08/08 06:55:01;;;;;;;7.05;1.50;;;;;;;23.14;79.55;99648.17;2203450;80;20985;-63
2022/08/08 06:58:03;;;;;;;5.50;1.27;;;;;;;23.37;74.61;99657.05;2204539;80;21055;-65
2022/08/08 07:01:05;;;;;;;7.97;1.67;;;;;;;22.98;65.20;99655.53;2199378;80;21027;-65
2022/08/08 07:04:06;;;;;;;4.50;1.30;;;;;;;22.80;67.98;99655.05;2197146;80;20990;-61
2022/08/08 07:07:08;;;;;;;4.58;1.30;;;;;;;22.97;74.84;99649.84;2210522;80;21039;-65
2022/08/08 07:10:09;;;;;;;8.15;1.27;;;;;;;23.31;69.15;99657.18;2194944;80;21519;-66
2022/08/08 07:16:14;;;;;;;5.50;1.25;;;;;;;23.83;64.99;99656.34;2193962;80;21016;-66
2022/08/08 07:19:16;;;;;;;4.70;1.50;;;;;;;24.01;66.52;99656.31;2201845;80;21526;-67
2022/08/08 07:22:18;;;;;;;6.78;1.52;;;;;;;23.99;57.26;99656.95;2206087;80;21001;-68
2022/08/08 07:25:19;;;;;;;6.22;1.32;;;;;;;24.08;58.11;99657.34;2205167;80;21509;-65
2022/08/08 07:28:22;;;;;;;6.97;1.45;;;;;;;24.30;60.14;99663.95;2199907;80;20988;-61
2022/08/08 07:31:24;;;;;;;4.80;1.50;;;;;;;24.58;55.86;99659.67;2180012;80;21091;-64
2022/08/08 07:34:25;;;;;;;5.08;1.40;;;;;;;24.34;52.65;99661.80;2203813;80;21094;-66
2022/08/08 07:37:27;;;;;;;;;;;;;;;24.20;56.47;99661.40;2203594;80;21088;-67
2022/08/08 07:40:28;;;;;;;6.62;1.90;;;;;;;24.58;56.83;99660.18;2203902;80;20415;-66
2022/08/08 07:43:30;;;;;;;7.17;1.30;;;;;;;24.63;56.41;99664.59;2196944;80;20997;-66
2022/08/08 07:46:31;;;;;;;6.65;1.60;;;;;;;24.53;56.62;99665.53;2196459;80;21008;-67
2022/08/08 07:49:33;;;;;;;7.55;1.40;;;;;;;24.48;52.88;99665.20;2205853;80;21075;-63
2022/08/08 07:52:34;;;;;;;7.42;1.40;;;;;;;24.63;54.79;99668.62;2199430;81;21082;-64
2022/08/08 07:55:36;;;;;;;;;;;;;;;24.90;54.95;99666.15;2202055;81;21577;-67
2022/08/08 07:58:37;;;;;;;7.42;1.30;;;;;;;25.62;51.15;99659.28;2207368;80;20187;-66
2022/08/08 08:04:42;;;;;;;9.98;1.45;;;;;;;25.49;40.63;99649.06;2178575;80;21515;-63
2022/08/08 08:07:43;;;;;;;5.03;1.22;;;;;;;24.88;46.51;99662.30;2203955;80;21035;-65
2022/08/08 08:10:45;;;;;;;4.25;1.32;;;;;;;24.63;46.93;99660.57;2200919;80;21519;-66
2022/08/08 08:13:46;;;;;;;7.17;1.22;;;;;;;24.52;48.57;99667.89;2205717;80;21003;-66
2022/08/08 08:16:48;;;;;;;7.78;1.72;;;;;;;24.36;48.47;99663.81;2198438;81;21064;-66
2022/08/08 08:19:49;;;;;;;;;;;;;;;24.36;49.78;99666.48;2202711;80;21096;-66
2022/08/08 08:22:51;;;;;;;3.72;1.15;;;;;;;24.17;47.38;99662.23;2199213;81;20196;-68
2022/08/08 08:25:52;;;;;;;6.17;1.45;;;;;;;24.14;47.17;99665.24;2203351;80;21549;-66
2022/08/08 08:28:54;;;;;;;7.25;1.77;;;;;;;24.06;47.92;99662.52;2206852;80;21001;-65
2022/08/08 08:31:56;;;;;;;10.78;1.45;;;;;;;24.24;50.79;99669.11;2201830;80;21490;-65
2022/08/08 08:34:57;;;;;;;8.80;1.32;;;;;;;23.98;47.32;99668.69;2241969;78;21039;-65
2022/08/08 08:37:59;;;;;;;4.40;1.32;;;;;;;23.56;47.81;99670.73;2201263;80;21031;-64
2022/08/08 08:41:00;;;;;;;6.37;1.60;;;;;;;23.33;46.01;99669.41;2246311;78;21004;-65
2022/08/08 08:44:02;;;;;;;3.77;1.22;;;;;;;23.32;48.33;99667.73;2199894;80;21072;-66
2022/08/08 08:47:03;;;;;;;7.42;1.62;;;;;;;23.34;47.33;99656.86;2200308;81;21019;-63
2022/08/08 08:50:05;;;;;;;4.22;1.07;;;;;;;24.01;47.91;99662.49;2207633;80;20957;-62
2022/08/08 08:53:06;;;;;;;4.35;1.20;;;;;;;24.34;45.31;99676.03;2204773;80;20981;-61
2022/08/08 08:56:08;;;;;;;5.17;1.32;;;;;;;24.54;46.05;99669.07;2200871;80;21479;-65
2022/08/08 08:59:10;;;;;;;7.17;1.40;;;;;;;24.88;46.09;99669.48;2202177;80;21016;-61
2022/08/08 09:02:11;;;;;;;4.00;1.35;;;;;;;24.87;43.28;99670.00;2200172;80;21499;-61
2022/08/08 09:05:12;;;;;;;8.53;1.40;;;;;;;24.80;49.72;99677.03;2203951;80;21047;-61
2022/08/08 09:08:14;;;;;;;7.30;1.30;;;;;;;24.61;44.44;99671.95;2201533;80;21066;-61
2022/08/08 09:11:15;;;;;;;10.58;2.08;;;;;;;24.02;45.05;99676.72;2201528;80;21102;-61
2022/08/08 09:14:17;;;;;;;8.78;1.87;;;;;;;23.63;47.43;99673.13;2199756;80;21091;-62
2022/08/08 09:17:18;;;;;;;8.33;1.75;;;;;;;23.51;48.92;99673.37;2203708;80;21571;-61
2022/08/08 09:20:19;;;;;;;10.53;1.90;;;;;;;23.59;46.56;99674.43;2201371;80;20990;-61
2022/08/08 09:23:21;;;;;;;9.60;1.60;;;;;;;23.40;49.31;99671.46;2201799;80;21004;-63
2022/08/08 09:26:22;;;;;;;6.15;1.45;;;;;;;23.56;48.76;99664.04;2199824;80;21024;-62
2022/08/08 09:29:24;;;;;;;9.90;1.70;;;;;;;24.15;50.88;99665.56;2202407;80;21016;-62
2022/08/08 09:32:25;;;;;;;7.40;1.35;;;;;;;24.84;48.77;99662.77;2200906;80;21541;-63
2022/08/08 09:35:27;;;;;;;5.12;1.60;;;;;;;25.06;42.86;99670.69;2201705;80;20997;-63
2022/08/08 09:38:30;;;;;;;7.50;1.00;;;;;;;25.14;47.53;99668.02;2204834;80;20992;-61
2022/08/08 09:41:31;;;;;;;6.53;1.55;;;;;;;25.72;46.21;99670.16;2199278;81;20973;-64
2022/08/08 09:44:33;;;;;;;4.03;1.32;;;;;;;25.68;43.84;99659.41;2202217;80;21402;-62
2022/08/08 09:47:35;;;;;;;13.75;2.30;;;;;;;25.81;43.21;99665.59;2201168;80;20997;-61
2022/08/08 09:50:36;;;;;;;;;;;;;;;26.48;45.16;99662.16;2206448;80;21024;-61
2022/08/08 09:53:38;;;;;;;7.75;1.40;;;;;;;26.62;38.78;99658.72;2204197;80;20108;-61
2022/08/08 09:56:39;;;;;;;5.15;1.37;;;;;;;26.94;38.10;99660.91;2204255;80;21000;-61
2022/08/08 09:59:40;;;;;;;4.90;1.20;;;;;;;27.24;38.11;99651.07;2198326;81;20996;-62
2022/08/08 10:02:42;;;;;;;;;;;;;;;26.90;38.24;99643.45;2243867;78;20977;-62
2022/08/08 10:05:44;;;;;;;3.08;1.15;;;;;;;27.17;39.44;99649.27;2243995;78;20106;-61
2022/08/08 10:08:45;;;;;;;;;;;;;;;27.71;38.47;99650.45;2246144;78;21016;-61
2022/08/08 10:11:47;;;;;;;5.08;1.10;;;;;;;28.14;40.37;99641.74;2243825;77;20125;-61
2022/08/08 10:14:48;;;;;;;;;;;;;;;27.98;34.63;99646.83;2242591;78;20976;-61
2022/08/08 10:17:50;;;;;;;10.70;2.35;;;;;;;28.15;39.35;99650.16;2242946;77;20134;-62
2022/08/08 10:20:53;;;;;;;;;;;;;;;28.50;36.96;99640.92;2245049;78;21020;-66
2022/08/08 10:23:54;;;;;;;7.55;1.70;;;;;;;28.39;37.01;99652.20;2241982;78;20130;-66
2022/08/08 10:26:57;;;;;;;;;;;;;;;28.11;37.32;99643.47;2246159;78;21448;-65
2022/08/08 10:29:59;;;;;;;9.45;1.65;;;;;;;27.38;36.81;99654.00;2241679;79;20393;-66
2022/08/08 10:33:01;;;;;;;7.53;1.40;;;;;;;26.58;37.16;99656.91;2241647;78;20988;-64
2022/08/08 10:36:02;;;;;;;7.53;1.60;;;;;;;25.94;36.42;99649.77;2241734;78;21674;-63
2022/08/08 10:39:04;;;;;;;7.47;1.42;;;;;;;25.91;38.74;99646.59;2244853;78;21126;-63
2022/08/08 10:42:05;;;;;;;5.30;1.57;;;;;;;26.31;39.62;99648.81;2242595;78;21545;-66
2022/08/08 10:45:07;;;;;;;11.73;1.77;;;;;;;26.94;39.02;99648.28;2243409;78;20976;-62
2022/08/08 10:48:09;;;;;;;6.90;1.67;;;;;;;27.41;36.43;99643.72;2243507;78;21094;-63
2022/08/08 10:51:10;;;;;;;6.58;1.45;;;;;;;26.81;36.61;99644.02;2244546;78;21025;-62
2022/08/08 10:54:12;;;;;;;5.50;1.25;;;;;;;26.36;38.98;99649.14;2203954;80;20999;-61
2022/08/08 10:57:13;;;;;;;6.70;1.30;;;;;;;26.58;39.22;99647.49;2200565;80;21078;-61
2022/08/08 11:00:15;;;;;;;5.92;1.45;;;;;;;26.49;37.35;99635.09;2201186;80;20960;-61
2022/08/08 11:03:17;;;;;;;6.65;1.60;;;;;;;26.21;38.99;99644.16;2201560;80;21471;-62
2022/08/08 11:06:19;;;;;;;5.78;1.30;;;;;;;26.72;38.13;99628.93;2203144;80;21051;-63
2022/08/08 11:09:20;;;;;;;7.87;1.42;;;;;;;27.09;37.99;99640.24;2206711;80;22064;-62
2022/08/08 11:12:22;;;;;;;7.47;1.62;;;;;;;26.88;37.99;99636.91;2204314;80;21000;-61
2022/08/08 11:15:23;;;;;;;7.37;1.72;;;;;;;26.45;38.85;99637.83;2207777;80;21119;-62
2022/08/08 11:18:25;;;;;;;5.40;1.37;;;;;;;26.97;41.08;99624.22;2202578;80;21000;-65
2022/08/08 11:21:29;;;;;;;5.50;1.30;;;;;;;27.36;39.87;99624.56;2202784;80;21490;-66
2022/08/08 11:24:30;;;;;;;8.20;1.77;;;;;;;27.27;37.42;99619.73;2181102;80;21509;-65
2022/08/08 11:27:32;;;;;;;5.62;1.22;;;;;;;27.01;39.20;99624.67;2201755;80;20989;-64
2022/08/08 11:30:33;;;;;;;;;;;;;;;27.12;36.66;99623.75;2208010;80;21075;-62
2022/08/08 11:33:35;;;;;;;5.17;1.40;;;;;;;27.29;36.23;99618.20;2205188;80;20112;-67
2022/08/08 11:36:37;;;;;;;4.45;1.30;;;;;;;27.62;38.97;99624.12;2201292;80;20996;-62
2022/08/08 11:39:38;;;;;;;6.65;1.65;;;;;;;27.70;38.14;99627.74;2200078;80;21024;-61
2022/08/08 11:42:41;;;;;;;4.60;1.25;;;;;;;26.68;37.97;99629.81;2188032;80;21063;-61
2022/08/08 11:45:42;;;;;;;6.87;1.62;;;;;;;26.23;38.97;99628.69;2197189;80;21032;-65
2022/08/08 11:48:43;;;;;;;8.00;1.67;;;;;;;25.97;37.94;99635.66;2189242;80;20987;-63
2022/08/08 11:51:45;;;;;;;7.47;1.80;;;;;;;25.69;37.87;99633.41;2187130;80;21004;-66
2022/08/08 11:54:47;;;;;;;8.85;1.50;;;;;;;26.41;41.15;99625.23;2196340;80;20989;-61
2022/08/08 11:57:48;;;;;;;8.75;1.60;;;;;;;26.96;38.56;99622.01;2195026;79;21005;-63
2022/08/08 12:00:50;;;;;;;6.20;1.47;;;;;;;27.54;38.60;99622.88;2192958;80;20992;-62
2022/08/08 12:03:51;;;;;;;;;;;;;;;27.20;37.92;99629.56;2187136;80;21522;-65
2022/08/08 12:06:53;;;;;;;8.48;1.40;;;;;;;26.80;37.60;99631.05;2196668;80;20107;-68
2022/08/08 12:09:55;;;;;;;7.87;1.85;;;;;;;26.41;39.86;99627.09;2193388;80;21110;-67
2022/08/08 12:12:57;;;;;;;7.08;1.60;;;;;;;27.43;39.04;99620.11;2187669;81;21048;-67
2022/08/08 12:15:58;;;;;;;8.38;1.72;;;;;;;27.68;36.48;99618.50;2189577;81;21045;-68
2022/08/08 12:19:00;;;;;;;;;;;;;;;27.75;37.66;99615.39;2201235;81;21115;-68
2022/08/08 12:22:01;;;;;;;7.40;1.82;;;;;;;28.10;36.69;99617.52;2202775;80;20109;-67
2022/08/08 12:25:03;;;;;;;;;;;;;;;28.33;37.98;99614.19;2203300;80;20997;-66
2022/08/08 12:28:04;;;;;;;;;;;;;;;28.85;36.35;99613.61;2185572;81;20132;-66
2022/08/08 12:31:06;;;;;;;5.45;1.65;;;;;;;28.29;34.97;99612.89;2200677;80;20116;-65
2022/08/08 12:34:07;;;;;;;;;;;;;;;27.42;35.65;99609.53;2241461;78;20961;-68
2022/08/08 12:37:09;;;;;;;5.05;1.57;;;;;;;27.04;35.97;99611.70;2242465;78;20098;-68
2022/08/08 12:40:11;;;;;;;6.55;1.30;;;;;;;26.83;37.57;99615.06;2237910;78;21040;-68
2022/08/08 12:43:12;;;;;;;;;;;;;;;27.43;37.50;99612.03;2249204;77;20953;-67
2022/08/08 12:46:14;;;;;;;7.70;1.25;;;;;;;28.25;37.69;99611.59;2244348;78;20106;-67
2022/08/08 12:49:15;;;;;;;5.67;1.75;;;;;;;29.13;36.81;99609.27;2246144;78;21491;-68
2022/08/08 12:52:17;;;;;;;;;;;;;;;29.96;35.45;99604.55;2244743;78;21083;-67
2022/08/08 12:55:18;;;;;;;4.90;1.37;;;;;;;30.27;34.00;99611.31;2243575;78;20416;-67
2022/08/08 12:58:20;;;;;;;2.92;1.32;;;;;;;29.60;33.34;99600.18;2242595;78;21036;-67
2022/08/08 13:01:22;;;;;;;5.67;1.47;;;;;;;28.35;34.34;99605.38;2244486;78;21593;-68
2022/08/08 13:04:23;;;;;;;;;;;;;;;27.80;36.00;99605.39;2243301;78;21094;-68
2022/08/08 13:07:25;;;;;;;8.83;2.08;;;;;;;27.29;36.26;99606.91;2243565;77;20440;-67
2022/08/08 13:10:26;;;;;;;;;;;;;;;27.21;36.70;99599.42;2245327;78;20988;-68
2022/08/08 13:13:28;;;;;;;6.87;1.85;;;;;;;27.54;36.61;99592.39;2243800;78;20115;-68
2022/08/08 13:16:29;;;;;;;10.68;1.55;;;;;;;27.51;34.50;99600.33;2240771;79;20996;-67
2022/08/08 13:19:31;;;;;;;;;;;;;;;27.56;35.19;99587.16;2244756;78;20984;-66
2022/08/08 13:22:32;;;;;;;8.60;1.20;;;;;;;27.78;35.36;99579.98;2240852;79;20098;-66
2022/08/08 13:25:33;;;;;;;10.40;1.90;;;;;;;28.14;34.80;99585.12;2237285;78;20953;-64
2022/08/08 13:28:35;;;;;;;;;;;;;;;27.85;34.96;99573.86;2246338;78;21551;-66
2022/08/08 13:31:36;;;;;;;9.03;1.62;;;;;;;27.32;34.08;99576.09;2243203;79;20083;-64
2022/08/08 13:34:38;;;;;;;;;;;;;;;27.16;36.59;99579.79;2198942;80;21486;-61
2022/08/08 13:37:39;;;;;;;10.60;1.80;;;;;;;27.66;36.41;99579.62;2197992;80;20096;-62
2022/08/08 13:40:42;;;;;;;;;;;;;;;27.95;36.38;99584.66;2193970;80;21555;-62
2022/08/08 13:43:43;;;;;;;9.40;1.98;;;;;;;28.32;34.46;99574.75;2211265;80;20096;-60
2022/08/08 13:46:45;;;;;;;7.65;2.00;;;;;;;28.18;33.95;99576.98;2189713;80;21060;-61
2022/08/08 13:49:47;;;;;;;;;;;;;;;27.70;35.13;99578.75;2209125;80;20995;-61
2022/08/08 13:52:49;;;;;;;9.43;1.55;;;;;;;27.21;35.20;99575.20;2211091;80;20084;-61
2022/08/08 13:55:51;;;;;;;7.03;1.75;;;;;;;26.98;36.32;99574.75;2211575;80;21131;-62
2022/08/08 13:58:52;;;;;;;6.00;1.52;;;;;;;26.64;35.58;99578.69;2198135;80;20997;-62
2022/08/08 14:01:54;;;;;;;7.72;1.60;;;;;;;26.24;36.78;99571.22;2179945;80;21063;-61
2022/08/08 14:04:56;;;;;;;7.15;1.45;;;;;;;26.40;37.67;99580.52;2195316;80;21010;-65
2022/08/08 14:07:57;;;;;;;6.58;1.70;;;;;;;26.88;35.62;99572.80;2203041;80;21116;-67
2022/08/08 14:10:59;;;;;;;7.92;1.50;;;;;;;27.24;36.70;99562.70;2200896;80;21460;-67
2022/08/08 14:14:00;;;;;;;3.95;1.15;;;;;;;27.61;36.95;99564.55;2190909;80;21092;-62
2022/08/08 14:17:02;;;;;;;7.35;1.52;;;;;;;27.26;35.20;99566.06;2193836;80;21536;-68
2022/08/08 14:20:03;;;;;;;6.22;1.30;;;;;;;27.23;36.24;99572.65;2197631;80;20995;-66
2022/08/08 14:23:04;;;;;;;7.95;1.65;;;;;;;27.09;34.85;99578.33;2195601;80;21028;-68